VLS weather

Valesdir Airport
Epi Island, Shefa, Vanuatu

Public forecast

Using degrees Celsius for public forecast. Weather courtesy of forecast.io.

METAR (pilot weather report)

Report is more than 2 hours old.

Closest report is Lamap Airport, 28.4 nm (52.5 km) NW. Retrieved 2019/09/21 09:00 UTC (3 hours ago):

NVSL 210900Z AUTO 14010KT //// // NCD 23/17 Q1017

TAF (pilot weather forecast)

Closest forecast is Lamap Airport, 28.4 nm (52.5 km) NW. Retrieved 2019/09/21 06:32 UTC (5 hours ago):

TAF NVSL 210430Z 2106/2206 13007KT 9999 SCT022